CST,Max TemperatureF,Mean TemperatureF,Min TemperatureF,Max Dew PointF,MeanDew PointF,Min DewpointF,Max Humidity, Mean Humidity, Min Humidity, Max Sea Level PressureIn, Mean Sea Level PressureIn, Min Sea Level PressureIn, Max VisibilityMiles, Mean VisibilityMiles, Min VisibilityMiles, Max Wind SpeedMPH, Mean Wind SpeedMPH, Max Gust SpeedMPH,PrecipitationIn, CloudCover, Events, WindDirDegrees
2013-1-1,21,5,-12,15,3,-15,88,80,71,30.34,30.13,29.91,10,10,7,17,10,21,0.00,7,,182
2013-1-2,29,16,3,22,12,-2,88,79,69,30.30,30.00,29.82,10,10,7,25,13,32,0.01,6,Snow,320
2013-1-3,22,9,-5,14,5,-10,87,78,68,30.36,30.21,30.01,10,9,2,20,10,24,T,3,Snow,215
2013-1-4,26,17,7,16,9,3,88,75,62,30.15,30.09,30.01,10,10,6,15,5,20,0.00,0,,228
2013-1-5,16,9,1,10,3,-3,88,77,66,30.19,30.05,29.93,10,6,2,22,7,25,T,5,Snow,322
2013-1-6,17,9,1,11,7,-2,88,81,73,30.24,30.10,29.81,10,8,5,24,9,31,T,2,,180
2013-1-7,35,24,13,23,17,9,84,72,59,29.95,29.85,29.78,10,10,9,24,12,30,0.00,1,,216
2013-1-8,35,26,17,26,20,6,88,75,55,29.92,29.78,29.65,10,10,3,21,9,33,0.01,4,Snow,187
2013-1-9,33,27,20,23,18,13,77,70,63,30.27,30.12,29.85,10,10,9,33,15,39,0.00,1,Snow,227
2013-1-10,43,36,29,32,28,21,82,68,53,30.04,29.75,29.57,10,8,2,33,23,45,0.06,5,Rain-Snow,159
2013-1-11,35,24,12,32,21,7,96,88,80,29.55,29.50,29.45,6,2,0,31,17,39,0.14,8,Fog-Rain-Snow,349
2013-1-12,12,6,0,7,-2,-8,83,76,68,30.25,29.91,29.51,10,4,1,31,18,38,0.07,7,Snow,332
2013-1-13,8,2,-4,0,-6,-11,79,72,65,30.32,30.24,30.16,10,10,9,13,7,15,T,4,,301
2013-1-14,12,4,-4,4,-2,-10,83,75,66,30.42,30.32,30.20,10,10,7,14,8,16,T,5,,211
2013-1-15,28,14,0,23,9,-4,87,75,62,30.25,29.92,29.56,10,8,2,23,14,28,0.06,5,Snow,185
2013-1-16,37,17,-4,31,8,-14,85,69,53,30.39,29.92,29.53,10,8,1,28,15,35,0.03,6,Rain-Snow,343
2013-1-17,12,6,-1,7,-2,-13,80,67,53,30.48,30.35,30.13,10,8,1,17,7,23,0.02,6,Snow,177
2013-1-18,27,20,12,20,15,7,84,79,73,30.14,29.87,29.71,10,9,2,23,9,30,T,6,Snow,145
2013-1-19,36,17,-2,28,5,-11,84,75,65,30.43,30.03,29.70,10,5,0,37,19,44,T,6,Snow,323
2013-1-20,3,-4,-11,-6,-12,-21,75,67,58,30.48,30.43,30.36,10,8,2,25,14,32,T,4,Snow,305
2013-1-21,-4,-9,-14,-15,-20,-24,70,63,56,30.46,30.43,30.39,10,10,10,16,10,20,0.00,0,,297
2013-1-22,9,-3,-16,1,-12,-24,79,68,57,30.44,30.36,30.24,10,10,10,12,5,15,T,4,,212
2013-1-23,9,-2,-14,2,-12,-23,86,71,56,30.77,30.48,30.13,10,8,1,29,15,35,T,4,Snow,340
2013-1-24,13,0,-13,4,-10,-23,69,62,54,30.76,30.40,29.98,10,9,2,28,14,40,0.01,6,Snow,156
2013-1-25,16,6,-5,7,-5,-12,72,67,62,30.40,30.21,29.92,10,8,2,30,14,36,0.00,5,Snow,320
2013-1-26,18,7,-4,8,0,-10,78,70,61,30.38,30.19,30.06,10,10,10,24,13,30,0.00,2,,153
2013-1-27,33,20,7,27,17,3,80,71,61,30.04,29.87,29.78,10,9,2,10,4,14,0.00,5,,106
2013-1-28,30,28,25,28,25,21,92,87,81,29.86,29.79,29.71,3,1,0,9,5,10,0.53,8,Fog-Snow,254
2013-1-29,26,21,15,21,17,9,92,80,67,29.99,29.81,29.66,10,6,2,23,14,28,0.03,8,Snow,344
2013-1-30,15,5,-6,8,-1,-13,80,76,72,30.01,29.91,29.85,10,4,1,26,18,33,T,8,Snow,320
2013-1-31,-5,-11,-18,-13,-16,-26,72,68,63,30.41,30.23,30.01,10,4,0,26,16,32,T,6,Snow,315